sensor_id;sensor_type;location;lat;lon;timestamp;temperature;humidity
20996;DHT22;10656;52.200;21.052;2022-08-30T00:02:52;16.40;99.90
20996;DHT22;10656;52.200;21.052;2022-08-30T00:05:21;16.50;99.90
20996;DHT22;10656;52.200;21.052;2022-08-30T00:07:50;16.50;99.90
20996;DHT22;10656;52.200;21.052;2022-08-30T00:10:20;16.40;99.90
20996;DHT22;10656;52.200;21.052;2022-08-30T00:12:49;16.40;99.90
20996;DHT22;10656;52.200;21.052;2022-08-30T00:15:19;16.50;99.90
20996;DHT22;10656;52.200;21.052;2022-08-30T00:17:48;16.40;99.90
20996;DHT22;10656;52.200;21.052;2022-08-30T00:20:19;16.40;99.90
20996;DHT22;10656;52.200;21.052;2022-08-30T00:22:49;16.40;99.90
20996;DHT22;10656;52.200;21.052;2022-08-30T00:25:17;16.40;99.90
20996;DHT22;10656;52.200;21.052;2022-08-30T00:27:48;16.40;99.90
20996;DHT22;10656;52.200;21.052;2022-08-30T00:30:18;16.40;99.90
20996;DHT22;10656;52.200;21.052;2022-08-30T00:32:47;16.30;99.90
20996;DHT22;10656;52.200;21.052;2022-08-30T00:35:17;16.30;99.90
20996;DHT22;10656;52.200;21.052;2022-08-30T00:37:46;16.30;99.90
20996;DHT22;10656;52.200;21.052;2022-08-30T00:40:17;16.30;99.90
20996;DHT22;10656;52.200;21.052;2022-08-30T00:42:56;16.20;99.90
20996;DHT22;10656;52.200;21.052;2022-08-30T00:45:33;16.20;99.90
20996;DHT22;10656;52.200;21.052;2022-08-30T00:48:03;16.20;99.90
20996;DHT22;10656;52.200;21.052;2022-08-30T00:50:38;16.10;99.90
20996;DHT22;10656;52.200;21.052;2022-08-30T00:53:12;16.10;99.90
20996;DHT22;10656;52.200;21.052;2022-08-30T00:55:43;16.10;99.90
20996;DHT22;10656;52.200;21.052;2022-08-30T00:58:15;16.10;99.90
20996;DHT22;10656;52.200;21.052;2022-08-30T01:00:48;16.10;99.90
20996;DHT22;10656;52.200;21.052;2022-08-30T01:03:19;16.20;99.90
20996;DHT22;10656;52.200;21.052;2022-08-30T01:05:50;16.10;99.90
20996;DHT22;10656;52.200;21.052;2022-08-30T01:08:19;16.10;99.90
20996;DHT22;10656;52.200;21.052;2022-08-30T01:10:49;16.10;99.90
20996;DHT22;10656;52.200;21.052;2022-08-30T01:13:21;16.10;99.90
20996;DHT22;10656;52.200;21.052;2022-08-30T01:15:50;16.10;99.90
20996;DHT22;10656;52.200;21.052;2022-08-30T01:18:22;16.10;99.90
20996;DHT22;10656;52.200;21.052;2022-08-30T01:20:58;16.10;99.90
20996;DHT22;10656;52.200;21.052;2022-08-30T01:23:32;16.10;99.90
20996;DHT22;10656;52.200;21.052;2022-08-30T01:26:05;16.00;99.90
20996;DHT22;10656;52.200;21.052;2022-08-30T01:28:35;16.10;99.90
20996;DHT22;10656;52.200;21.052;2022-08-30T01:31:03;16.00;99.90
20996;DHT22;10656;52.200;21.052;2022-08-30T01:33:34;16.00;99.90
20996;DHT22;10656;52.200;21.052;2022-08-30T01:36:06;16.00;99.90
20996;DHT22;10656;52.200;21.052;2022-08-30T01:38:44;16.00;99.90
20996;DHT22;10656;52.200;21.052;2022-08-30T01:41:18;16.00;99.90
20996;DHT22;10656;52.200;21.052;2022-08-30T01:43:49;16.00;99.90
20996;DHT22;10656;52.200;21.052;2022-08-30T01:46:20;16.00;99.90
20996;DHT22;10656;52.200;21.052;2022-08-30T01:48:50;16.00;99.90
20996;DHT22;10656;52.200;21.052;2022-08-30T01:51:21;16.00;99.90
20996;DHT22;10656;52.200;21.052;2022-08-30T01:53:51;15.90;99.90
20996;DHT22;10656;52.200;21.052;2022-08-30T01:56:20;16.00;99.90
20996;DHT22;10656;52.200;21.052;2022-08-30T01:58:49;16.00;99.90
20996;DHT22;10656;52.200;21.052;2022-08-30T02:01:21;15.90;99.90
20996;DHT22;10656;52.200;21.052;2022-08-30T02:03:51;15.90;99.90
20996;DHT22;10656;52.200;21.052;2022-08-30T02:06:22;15.90;99.90
20996;DHT22;10656;52.200;21.052;2022-08-30T02:08:55;15.90;99.90
20996;DHT22;10656;52.200;21.052;2022-08-30T02:11:24;15.80;99.90
20996;DHT22;10656;52.200;21.052;2022-08-30T02:13:53;15.70;99.90
20996;DHT22;10656;52.200;21.052;2022-08-30T02:16:23;15.70;99.90
20996;DHT22;10656;52.200;21.052;2022-08-30T02:18:53;15.70;99.90
20996;DHT22;10656;52.200;21.052;2022-08-30T02:21:24;15.70;99.90
20996;DHT22;10656;52.200;21.052;2022-08-30T02:23:55;15.70;99.90
20996;DHT22;10656;52.200;21.052;2022-08-30T02:26:24;15.70;99.90
20996;DHT22;10656;52.200;21.052;2022-08-30T02:28:53;15.70;99.90
20996;DHT22;10656;52.200;21.052;2022-08-30T02:31:25;15.70;99.90
20996;DHT22;10656;52.200;21.052;2022-08-30T02:33:54;15.70;99.90
20996;DHT22;10656;52.200;21.052;2022-08-30T02:36:23;15.60;99.90
20996;DHT22;10656;52.200;21.052;2022-08-30T02:38:52;15.70;99.90
20996;DHT22;10656;52.200;21.052;2022-08-30T02:41:22;15.60;99.90
20996;DHT22;10656;52.200;21.052;2022-08-30T02:43:51;15.50;99.90
20996;DHT22;10656;52.200;21.052;2022-08-30T02:46:24;15.50;99.90
20996;DHT22;10656;52.200;21.052;2022-08-30T02:48:59;15.40;99.90
20996;DHT22;10656;52.200;21.052;2022-08-30T02:51:48;15.40;99.90
20996;DHT22;10656;52.200;21.052;2022-08-30T02:54:17;15.50;99.90
20996;DHT22;10656;52.200;21.052;2022-08-30T02:56:48;15.40;99.90
20996;DHT22;10656;52.200;21.052;2022-08-30T02:59:18;15.40;99.90
20996;DHT22;10656;52.200;21.052;2022-08-30T03:01:47;15.50;99.90
20996;DHT22;10656;52.200;21.052;2022-08-30T03:04:16;15.40;99.90
20996;DHT22;10656;52.200;21.052;2022-08-30T03:06:53;15.40;99.90
20996;DHT22;10656;52.200;21.052;2022-08-30T03:09:22;15.30;99.90
20996;DHT22;10656;52.200;21.052;2022-08-30T03:11:52;15.40;99.90
20996;DHT22;10656;52.200;21.052;2022-08-30T03:14:21;15.30;99.90
20996;DHT22;10656;52.200;21.052;2022-08-30T03:16:50;15.30;99.90
20996;DHT22;10656;52.200;21.052;2022-08-30T03:19:20;15.30;99.90
20996;DHT22;10656;52.200;21.052;2022-08-30T03:21:49;15.20;99.90
20996;DHT22;10656;52.200;21.052;2022-08-30T03:24:17;15.20;99.90
20996;DHT22;10656;52.200;21.052;2022-08-30T03:26:46;15.20;99.90
20996;DHT22;10656;52.200;21.052;2022-08-30T03:29:16;15.20;99.90
20996;DHT22;10656;52.200;21.052;2022-08-30T03:31:45;15.20;99.90
20996;DHT22;10656;52.200;21.052;2022-08-30T03:34:20;15.20;99.90
20996;DHT22;10656;52.200;21.052;2022-08-30T03:36:50;15.20;99.90
20996;DHT22;10656;52.200;21.052;2022-08-30T03:39:19;15.30;99.90
20996;DHT22;10656;52.200;21.052;2022-08-30T03:41:49;15.30;99.90
20996;DHT22;10656;52.200;21.052;2022-08-30T03:44:19;15.30;99.90
20996;DHT22;10656;52.200;21.052;2022-08-30T03:46:48;15.20;99.90
20996;DHT22;10656;52.200;21.052;2022-08-30T03:49:18;15.30;99.90
20996;DHT22;10656;52.200;21.052;2022-08-30T03:51:47;15.20;99.90
20996;DHT22;10656;52.200;21.052;2022-08-30T03:54:16;15.20;99.90
20996;DHT22;10656;52.200;21.052;2022-08-30T03:56:45;15.20;99.90
20996;DHT22;10656;52.200;21.052;2022-08-30T03:59:13;15.30;99.90
20996;DHT22;10656;52.200;21.052;2022-08-30T04:01:43;15.30;99.90
20996;DHT22;10656;52.200;21.052;2022-08-30T04:04:14;15.30;99.90
20996;DHT22;10656;52.200;21.052;2022-08-30T04:06:47;15.30;99.90
20996;DHT22;10656;52.200;21.052;2022-08-30T04:09:17;15.40;99.90
20996;DHT22;10656;52.200;21.052;2022-08-30T04:11:45;15.40;99.90
20996;DHT22;10656;52.200;21.052;2022-08-30T04:14:14;15.40;99.90
20996;DHT22;10656;52.200;21.052;2022-08-30T04:16:44;15.50;99.90
20996;DHT22;10656;52.200;21.052;2022-08-30T04:19:13;15.50;99.90
20996;DHT22;10656;52.200;21.052;2022-08-30T04:21:42;15.50;99.90
20996;DHT22;10656;52.200;21.052;2022-08-30T04:24:11;15.60;99.90
20996;DHT22;10656;52.200;21.052;2022-08-30T04:26:39;15.60;99.90
20996;DHT22;10656;52.200;21.052;2022-08-30T04:29:09;15.60;99.90
20996;DHT22;10656;52.200;21.052;2022-08-30T04:31:44;15.60;99.90
20996;DHT22;10656;52.200;21.052;2022-08-30T04:34:13;15.70;99.90
20996;DHT22;10656;52.200;21.052;2022-08-30T04:36:42;15.70;99.90
20996;DHT22;10656;52.200;21.052;2022-08-30T04:39:14;15.80;99.90
20996;DHT22;10656;52.200;21.052;2022-08-30T04:41:43;15.90;99.90
20996;DHT22;10656;52.200;21.052;2022-08-30T04:44:11;16.00;99.90
20996;DHT22;10656;52.200;21.052;2022-08-30T04:46:47;16.10;99.90
20996;DHT22;10656;52.200;21.052;2022-08-30T04:49:15;16.10;99.90
20996;DHT22;10656;52.200;21.052;2022-08-30T04:51:44;16.20;99.90
20996;DHT22;10656;52.200;21.052;2022-08-30T04:54:12;16.20;99.90
20996;DHT22;10656;52.200;21.052;2022-08-30T04:56:41;16.30;99.90
20996;DHT22;10656;52.200;21.052;2022-08-30T04:59:09;16.40;99.90
20996;DHT22;10656;52.200;21.052;2022-08-30T05:01:38;16.30;99.90
20996;DHT22;10656;52.200;21.052;2022-08-30T05:04:13;16.40;99.90
20996;DHT22;10656;52.200;21.052;2022-08-30T05:06:42;16.30;99.90
20996;DHT22;10656;52.200;21.052;2022-08-30T05:09:11;16.20;99.90
20996;DHT22;10656;52.200;21.052;2022-08-30T05:11:39;16.20;99.90
20996;DHT22;10656;52.200;21.052;2022-08-30T05:14:09;16.20;99.90
20996;DHT22;10656;52.200;21.052;2022-08-30T05:16:38;16.30;99.90
20996;DHT22;10656;52.200;21.052;2022-08-30T05:19:07;16.30;99.90
20996;DHT22;10656;52.200;21.052;2022-08-30T05:21:37;16.40;99.90
20996;DHT22;10656;52.200;21.052;2022-08-30T05:24:07;16.40;99.90
20996;DHT22;10656;52.200;21.052;2022-08-30T05:26:37;16.40;99.90
20996;DHT22;10656;52.200;21.052;2022-08-30T05:29:06;16.60;99.90
20996;DHT22;10656;52.200;21.052;2022-08-30T05:31:35;16.60;99.90
20996;DHT22;10656;52.200;21.052;2022-08-30T05:34:04;16.70;99.90
20996;DHT22;10656;52.200;21.052;2022-08-30T05:36:35;16.80;99.90
20996;DHT22;10656;52.200;21.052;2022-08-30T05:39:06;16.70;99.90
20996;DHT22;10656;52.200;21.052;2022-08-30T05:41:36;16.70;99.90
20996;DHT22;10656;52.200;21.052;2022-08-30T05:44:06;16.90;99.90
20996;DHT22;10656;52.200;21.052;2022-08-30T05:46:35;17.00;99.90
20996;DHT22;10656;52.200;21.052;2022-08-30T05:49:06;17.20;99.90
20996;DHT22;10656;52.200;21.052;2022-08-30T05:51:36;17.40;99.90
20996;DHT22;10656;52.200;21.052;2022-08-30T05:54:12;17.40;99.90
20996;DHT22;10656;52.200;21.052;2022-08-30T05:56:42;17.50;99.90
20996;DHT22;10656;52.200;21.052;2022-08-30T05:59:12;17.60;99.70
20996;DHT22;10656;52.200;21.052;2022-08-30T06:01:43;17.70;98.10
20996;DHT22;10656;52.200;21.052;2022-08-30T06:04:12;17.60;98.20
20996;DHT22;10656;52.200;21.052;2022-08-30T06:06:42;17.60;98.90
20996;DHT22;10656;52.200;21.052;2022-08-30T06:09:13;17.60;98.80
20996;DHT22;10656;52.200;21.052;2022-08-30T06:11:44;17.70;98.50
20996;DHT22;10656;52.200;21.052;2022-08-30T06:14:13;17.70;97.50
20996;DHT22;10656;52.200;21.052;2022-08-30T06:16:41;17.80;97.30
20996;DHT22;10656;52.200;21.052;2022-08-30T06:19:13;17.90;97.30
20996;DHT22;10656;52.200;21.052;2022-08-30T06:21:45;18.00;96.80
20996;DHT22;10656;52.200;21.052;2022-08-30T06:24:16;18.00;96.40
20996;DHT22;10656;52.200;21.052;2022-08-30T06:26:48;18.00;95.90
20996;DHT22;10656;52.200;21.052;2022-08-30T06:29:18;17.90;96.00
20996;DHT22;10656;52.200;21.052;2022-08-30T06:31:47;18.00;95.80
20996;DHT22;10656;52.200;21.052;2022-08-30T06:34:16;18.20;96.20
20996;DHT22;10656;52.200;21.052;2022-08-30T06:36:45;18.40;95.60
20996;DHT22;10656;52.200;21.052;2022-08-30T06:39:15;18.50;94.50
20996;DHT22;10656;52.200;21.052;2022-08-30T06:41:44;18.60;94.20
20996;DHT22;10656;52.200;21.052;2022-08-30T06:44:12;18.80;93.90
20996;DHT22;10656;52.200;21.052;2022-08-30T06:46:40;18.80;94.10
20996;DHT22;10656;52.200;21.052;2022-08-30T06:49:09;18.90;93.60
20996;DHT22;10656;52.200;21.052;2022-08-30T06:51:38;19.00;93.00
20996;DHT22;10656;52.200;21.052;2022-08-30T06:54:08;18.80;92.60
20996;DHT22;10656;52.200;21.052;2022-08-30T06:56:40;18.80;92.90
20996;DHT22;10656;52.200;21.052;2022-08-30T06:59:24;18.60;93.20
20996;DHT22;10656;52.200;21.052;2022-08-30T07:01:54;18.60;93.40
20996;DHT22;10656;52.200;21.052;2022-08-30T07:04:23;18.60;94.10
20996;DHT22;10656;52.200;21.052;2022-08-30T07:06:52;18.80;93.80
20996;DHT22;10656;52.200;21.052;2022-08-30T07:09:20;19.10;93.20
20996;DHT22;10656;52.200;21.052;2022-08-30T07:11:51;19.10;92.70
20996;DHT22;10656;52.200;21.052;2022-08-30T07:14:21;19.10;92.90
20996;DHT22;10656;52.200;21.052;2022-08-30T07:16:49;19.10;93.10
20996;DHT22;10656;52.200;21.052;2022-08-30T07:19:18;19.20;93.10
20996;DHT22;10656;52.200;21.052;2022-08-30T07:21:47;19.30;92.50
20996;DHT22;10656;52.200;21.052;2022-08-30T07:24:18;19.40;92.60
20996;DHT22;10656;52.200;21.052;2022-08-30T07:26:48;19.50;92.30
20996;DHT22;10656;52.200;21.052;2022-08-30T07:29:19;19.50;92.10
20996;DHT22;10656;52.200;21.052;2022-08-30T07:31:48;19.40;92.20
20996;DHT22;10656;52.200;21.052;2022-08-30T07:34:16;19.30;92.20
20996;DHT22;10656;52.200;21.052;2022-08-30T07:36:49;19.10;93.00
20996;DHT22;10656;52.200;21.052;2022-08-30T07:39:18;19.10;93.60
20996;DHT22;10656;52.200;21.052;2022-08-30T07:41:46;19.10;93.40
20996;DHT22;10656;52.200;21.052;2022-08-30T07:44:17;19.20;93.60
20996;DHT22;10656;52.200;21.052;2022-08-30T07:46:50;19.10;93.10
20996;DHT22;10656;52.200;21.052;2022-08-30T07:49:19;19.30;93.40
20996;DHT22;10656;52.200;21.052;2022-08-30T07:51:47;19.60;92.80
20996;DHT22;10656;52.200;21.052;2022-08-30T07:54:15;19.80;92.50
20996;DHT22;10656;52.200;21.052;2022-08-30T07:56:44;19.90;92.00
20996;DHT22;10656;52.200;21.052;2022-08-30T07:59:12;20.00;91.40
20996;DHT22;10656;52.200;21.052;2022-08-30T08:01:41;20.10;91.20
20996;DHT22;10656;52.200;21.052;2022-08-30T08:04:11;20.10;90.90
20996;DHT22;10656;52.200;21.052;2022-08-30T08:06:39;19.80;91.10
20996;DHT22;10656;52.200;21.052;2022-08-30T08:09:08;19.70;91.30
20996;DHT22;10656;52.200;21.052;2022-08-30T08:11:37;19.70;91.60
20996;DHT22;10656;52.200;21.052;2022-08-30T08:14:07;19.70;91.70
20996;DHT22;10656;52.200;21.052;2022-08-30T08:16:36;19.90;91.60
20996;DHT22;10656;52.200;21.052;2022-08-30T08:19:05;20.10;91.30
20996;DHT22;10656;52.200;21.052;2022-08-30T08:21:37;20.00;91.00
20996;DHT22;10656;52.200;21.052;2022-08-30T08:24:06;19.90;91.10
20996;DHT22;10656;52.200;21.052;2022-08-30T08:26:36;19.90;91.20
20996;DHT22;10656;52.200;21.052;2022-08-30T08:29:11;20.00;91.20
20996;DHT22;10656;52.200;21.052;2022-08-30T08:31:40;20.00;90.90
20996;DHT22;10656;52.200;21.052;2022-08-30T08:34:09;20.00;91.30
20996;DHT22;10656;52.200;21.052;2022-08-30T08:36:39;20.00;91.10
20996;DHT22;10656;52.200;21.052;2022-08-30T08:39:08;20.00;91.40
20996;DHT22;10656;52.200;21.052;2022-08-30T08:41:49;20.00;91.40
20996;DHT22;10656;52.200;21.052;2022-08-30T08:44:29;20.00;91.00
20996;DHT22;10656;52.200;21.052;2022-08-30T08:47:07;20.10;90.80
20996;DHT22;10656;52.200;21.052;2022-08-30T08:49:42;20.10;90.70
20996;DHT22;10656;52.200;21.052;2022-08-30T08:52:17;20.00;90.70
20996;DHT22;10656;52.200;21.052;2022-08-30T08:55:08;20.00;91.00
20996;DHT22;10656;52.200;21.052;2022-08-30T08:57:37;20.10;91.00
20996;DHT22;10656;52.200;21.052;2022-08-30T09:00:08;20.30;90.60
20996;DHT22;10656;52.200;21.052;2022-08-30T09:02:40;20.40;90.60
20996;DHT22;10656;52.200;21.052;2022-08-30T09:05:14;20.60;90.40
20996;DHT22;10656;52.200;21.052;2022-08-30T09:07:48;20.70;89.90
20996;DHT22;10656;52.200;21.052;2022-08-30T09:10:20;20.80;90.00
20996;DHT22;10656;52.200;21.052;2022-08-30T09:13:09;20.80;89.40
20996;DHT22;10656;52.200;21.052;2022-08-30T09:15:45;20.60;89.50
20996;DHT22;10656;52.200;21.052;2022-08-30T09:18:39;20.90;89.80
20996;DHT22;10656;52.200;21.052;2022-08-30T09:21:13;21.20;89.20
20996;DHT22;10656;52.200;21.052;2022-08-30T09:23:57;21.20;88.80
20996;DHT22;10656;52.200;21.052;2022-08-30T09:26:28;21.30;88.30
20996;DHT22;10656;52.200;21.052;2022-08-30T09:28:57;21.50;88.30
20996;DHT22;10656;52.200;21.052;2022-08-30T09:31:28;21.50;88.10
20996;DHT22;10656;52.200;21.052;2022-08-30T09:34:00;21.70;87.90
20996;DHT22;10656;52.200;21.052;2022-08-30T09:36:33;21.80;86.40
20996;DHT22;10656;52.200;21.052;2022-08-30T09:39:05;21.70;86.40
20996;DHT22;10656;52.200;21.052;2022-08-30T09:41:38;21.50;86.70
20996;DHT22;10656;52.200;21.052;2022-08-30T09:44:13;21.40;86.90
20996;DHT22;10656;52.200;21.052;2022-08-30T09:46:47;21.40;86.20
20996;DHT22;10656;52.200;21.052;2022-08-30T09:49:32;21.40;85.70
20996;DHT22;10656;52.200;21.052;2022-08-30T09:52:26;21.50;85.90
20996;DHT22;10656;52.200;21.052;2022-08-30T09:55:14;21.40;85.70
20996;DHT22;10656;52.200;21.052;2022-08-30T09:57:53;21.10;86.00
20996;DHT22;10656;52.200;21.052;2022-08-30T10:00:25;21.00;86.50
20996;DHT22;10656;52.200;21.052;2022-08-30T10:03:13;20.70;86.70
20996;DHT22;10656;52.200;21.052;2022-08-30T10:06:08;20.90;87.30
20996;DHT22;10656;52.200;21.052;2022-08-30T10:08:49;21.30;87.30
20996;DHT22;10656;52.200;21.052;2022-08-30T10:11:26;21.60;86.90
20996;DHT22;10656;52.200;21.052;2022-08-30T10:17:08;22.20;85.80
20996;DHT22;10656;52.200;21.052;2022-08-30T10:19:49;22.20;85.90
20996;DHT22;10656;52.200;21.052;2022-08-30T10:22:23;22.10;85.70
20996;DHT22;10656;52.200;21.052;2022-08-30T10:25:00;21.90;85.90
20996;DHT22;10656;52.200;21.052;2022-08-30T10:27:35;21.60;85.70
20996;DHT22;10656;52.200;21.052;2022-08-30T10:37:35;21.20;86.90
20996;DHT22;10656;52.200;21.052;2022-08-30T10:40:12;21.40;86.90
20996;DHT22;10656;52.200;21.052;2022-08-30T10:43:06;21.60;86.80
20996;DHT22;10656;52.200;21.052;2022-08-30T10:45:39;21.90;86.50
20996;DHT22;10656;52.200;21.052;2022-08-30T10:48:15;22.00;85.80
20996;DHT22;10656;52.200;21.052;2022-08-30T10:50:48;21.90;85.80
20996;DHT22;10656;52.200;21.052;2022-08-30T10:53:24;21.50;86.00
20996;DHT22;10656;52.200;21.052;2022-08-30T10:56:01;21.00;87.00
20996;DHT22;10656;52.200;21.052;2022-08-30T10:58:37;20.80;88.50
20996;DHT22;10656;52.200;21.052;2022-08-30T11:01:17;20.70;89.20
20996;DHT22;10656;52.200;21.052;2022-08-30T11:04:25;20.80;89.00
20996;DHT22;10656;52.200;21.052;2022-08-30T11:07:08;20.90;88.90
20996;DHT22;10656;52.200;21.052;2022-08-30T11:09:53;21.00;88.30
20996;DHT22;10656;52.200;21.052;2022-08-30T11:12:31;21.20;88.40
20996;DHT22;10656;52.200;21.052;2022-08-30T11:15:15;21.40;88.10
20996;DHT22;10656;52.200;21.052;2022-08-30T11:17:54;21.30;87.30
20996;DHT22;10656;52.200;21.052;2022-08-30T11:20:37;21.10;87.60
20996;DHT22;10656;52.200;21.052;2022-08-30T11:23:28;21.00;87.90
20996;DHT22;10656;52.200;21.052;2022-08-30T11:26:02;20.90;87.80
20996;DHT22;10656;52.200;21.052;2022-08-30T11:29:00;20.70;88.30
20996;DHT22;10656;52.200;21.052;2022-08-30T11:31:38;20.70;88.80
20996;DHT22;10656;52.200;21.052;2022-08-30T11:34:09;20.80;88.50
20996;DHT22;10656;52.200;21.052;2022-08-30T11:37:06;20.80;88.10
20996;DHT22;10656;52.200;21.052;2022-08-30T11:39:53;20.90;87.50
20996;DHT22;10656;52.200;21.052;2022-08-30T11:42:36;20.90;87.30
20996;DHT22;10656;52.200;21.052;2022-08-30T11:45:44;21.00;87.00
20996;DHT22;10656;52.200;21.052;2022-08-30T11:51:56;21.30;86.40
20996;DHT22;10656;52.200;21.052;2022-08-30T11:54:56;21.60;86.20
20996;DHT22;10656;52.200;21.052;2022-08-30T11:57:34;21.90;85.70
20996;DHT22;10656;52.200;21.052;2022-08-30T12:00:09;22.10;85.40
20996;DHT22;10656;52.200;21.052;2022-08-30T12:02:46;22.20;85.20
20996;DHT22;10656;52.200;21.052;2022-08-30T12:05:50;22.40;85.20
20996;DHT22;10656;52.200;21.052;2022-08-30T12:08:41;22.50;84.50
20996;DHT22;10656;52.200;21.052;2022-08-30T12:14:49;22.90;84.20
20996;DHT22;10656;52.200;21.052;2022-08-30T12:17:24;23.10;83.30
20996;DHT22;10656;52.200;21.052;2022-08-30T12:20:19;23.10;83.10
20996;DHT22;10656;52.200;21.052;2022-08-30T12:22:49;23.10;83.00
20996;DHT22;10656;52.200;21.052;2022-08-30T12:25:27;23.20;82.70
20996;DHT22;10656;52.200;21.052;2022-08-30T12:28:14;22.90;82.60
20996;DHT22;10656;52.200;21.052;2022-08-30T12:30:43;22.70;82.50
20996;DHT22;10656;52.200;21.052;2022-08-30T12:33:24;22.40;82.90
20996;DHT22;10656;52.200;21.052;2022-08-30T12:35:55;22.30;83.20
20996;DHT22;10656;52.200;21.052;2022-08-30T12:38:27;22.30;83.40
20996;DHT22;10656;52.200;21.052;2022-08-30T12:41:01;22.40;83.50
20996;DHT22;10656;52.200;21.052;2022-08-30T12:43:35;22.50;83.60
20996;DHT22;10656;52.200;21.052;2022-08-30T12:46:10;22.70;83.30
20996;DHT22;10656;52.200;21.052;2022-08-30T12:48:41;22.80;83.30
20996;DHT22;10656;52.200;21.052;2022-08-30T12:51:32;22.90;83.10
20996;DHT22;10656;52.200;21.052;2022-08-30T12:54:15;23.00;82.80
20996;DHT22;10656;52.200;21.052;2022-08-30T12:56:58;23.00;83.10
20996;DHT22;10656;52.200;21.052;2022-08-30T12:59:51;23.00;82.70
20996;DHT22;10656;52.200;21.052;2022-08-30T13:02:43;23.00;82.50
20996;DHT22;10656;52.200;21.052;2022-08-30T13:05:33;22.80;82.70
20996;DHT22;10656;52.200;21.052;2022-08-30T13:08:17;22.60;82.70
20996;DHT22;10656;52.200;21.052;2022-08-30T13:10:52;22.60;82.40
20996;DHT22;10656;52.200;21.052;2022-08-30T13:13:33;22.50;82.80
20996;DHT22;10656;52.200;21.052;2022-08-30T13:16:11;22.50;82.70
20996;DHT22;10656;52.200;21.052;2022-08-30T13:18:50;22.30;82.70
20996;DHT22;10656;52.200;21.052;2022-08-30T13:21:26;22.10;83.00
20996;DHT22;10656;52.200;21.052;2022-08-30T13:23:57;22.00;83.30
20996;DHT22;10656;52.200;21.052;2022-08-30T13:26:31;22.00;83.60
20996;DHT22;10656;52.200;21.052;2022-08-30T13:29:03;21.90;83.70
20996;DHT22;10656;52.200;21.052;2022-08-30T13:31:36;21.90;83.70
20996;DHT22;10656;52.200;21.052;2022-08-30T13:34:07;21.70;84.00
20996;DHT22;10656;52.200;21.052;2022-08-30T13:36:46;21.80;83.90
20996;DHT22;10656;52.200;21.052;2022-08-30T13:39:17;21.90;84.00
20996;DHT22;10656;52.200;21.052;2022-08-30T13:41:48;21.80;83.50
20996;DHT22;10656;52.200;21.052;2022-08-30T13:44:19;21.80;83.60
20996;DHT22;10656;52.200;21.052;2022-08-30T13:46:51;21.60;83.70
20996;DHT22;10656;52.200;21.052;2022-08-30T13:49:40;21.80;83.90
20996;DHT22;10656;52.200;21.052;2022-08-30T13:52:15;21.80;83.50
20996;DHT22;10656;52.200;21.052;2022-08-30T13:54:49;21.60;83.90
20996;DHT22;10656;52.200;21.052;2022-08-30T13:57:20;21.60;83.70
20996;DHT22;10656;52.200;21.052;2022-08-30T14:00:13;21.40;83.70
20996;DHT22;10656;52.200;21.052;2022-08-30T14:02:46;21.50;84.10
20996;DHT22;10656;52.200;21.052;2022-08-30T14:05:22;21.40;83.90
20996;DHT22;10656;52.200;21.052;2022-08-30T14:08:14;21.30;83.90
20996;DHT22;10656;52.200;21.052;2022-08-30T14:11:06;21.10;84.20
20996;DHT22;10656;52.200;21.052;2022-08-30T14:13:37;20.90;84.60
20996;DHT22;10656;52.200;21.052;2022-08-30T14:16:31;20.80;84.70
20996;DHT22;10656;52.200;21.052;2022-08-30T14:19:02;20.80;84.90
20996;DHT22;10656;52.200;21.052;2022-08-30T14:21:34;20.90;85.20
20996;DHT22;10656;52.200;21.052;2022-08-30T14:24:06;20.90;85.00
20996;DHT22;10656;52.200;21.052;2022-08-30T14:26:37;20.90;85.10
20996;DHT22;10656;52.200;21.052;2022-08-30T14:29:09;20.80;85.10
20996;DHT22;10656;52.200;21.052;2022-08-30T14:31:40;20.90;85.40
20996;DHT22;10656;52.200;21.052;2022-08-30T14:34:10;21.00;85.40
20996;DHT22;10656;52.200;21.052;2022-08-30T14:36:41;21.10;85.30
20996;DHT22;10656;52.200;21.052;2022-08-30T14:39:13;21.40;85.40
20996;DHT22;10656;52.200;21.052;2022-08-30T14:41:46;21.50;84.70
20996;DHT22;10656;52.200;21.052;2022-08-30T14:44:17;21.60;84.60
20996;DHT22;10656;52.200;21.052;2022-08-30T14:46:48;21.70;84.60
20996;DHT22;10656;52.200;21.052;2022-08-30T14:49:21;21.90;84.70
20996;DHT22;10656;52.200;21.052;2022-08-30T14:51:54;22.70;83.80
20996;DHT22;10656;52.200;21.052;2022-08-30T14:54:27;23.00;82.90
20996;DHT22;10656;52.200;21.052;2022-08-30T14:56:58;22.70;82.70
20996;DHT22;10656;52.200;21.052;2022-08-30T14:59:28;22.20;83.00
20996;DHT22;10656;52.200;21.052;2022-08-30T15:01:59;22.00;83.40
20996;DHT22;10656;52.200;21.052;2022-08-30T15:04:31;21.70;83.80
20996;DHT22;10656;52.200;21.052;2022-08-30T15:07:00;21.40;84.00
20996;DHT22;10656;52.200;21.052;2022-08-30T15:09:40;21.30;84.50
20996;DHT22;10656;52.200;21.052;2022-08-30T15:12:09;21.00;84.70
20996;DHT22;10656;52.200;21.052;2022-08-30T15:14:42;20.70;84.70
20996;DHT22;10656;52.200;21.052;2022-08-30T15:17:14;20.50;85.20
20996;DHT22;10656;52.200;21.052;2022-08-30T15:19:45;20.20;85.30
20996;DHT22;10656;52.200;21.052;2022-08-30T15:22:14;20.20;85.40
20996;DHT22;10656;52.200;21.052;2022-08-30T15:24:43;20.20;85.60
20996;DHT22;10656;52.200;21.052;2022-08-30T15:27:17;20.10;85.90
20996;DHT22;10656;52.200;21.052;2022-08-30T15:29:45;20.10;86.30
20996;DHT22;10656;52.200;21.052;2022-08-30T15:32:17;20.20;86.00
20996;DHT22;10656;52.200;21.052;2022-08-30T15:34:46;20.00;86.10
20996;DHT22;10656;52.200;21.052;2022-08-30T15:37:22;19.90;86.40
20996;DHT22;10656;52.200;21.052;2022-08-30T15:39:51;19.90;86.60
20996;DHT22;10656;52.200;21.052;2022-08-30T15:42:20;19.80;86.70
20996;DHT22;10656;52.200;21.052;2022-08-30T15:44:49;19.80;87.00
20996;DHT22;10656;52.200;21.052;2022-08-30T15:47:21;19.90;86.90
20996;DHT22;10656;52.200;21.052;2022-08-30T15:49:54;19.80;87.20
20996;DHT22;10656;52.200;21.052;2022-08-30T15:52:24;19.70;87.50
20996;DHT22;10656;52.200;21.052;2022-08-30T15:54:54;19.70;87.50
20996;DHT22;10656;52.200;21.052;2022-08-30T15:57:26;19.70;87.60
20996;DHT22;10656;52.200;21.052;2022-08-30T15:59:57;19.60;87.60
20996;DHT22;10656;52.200;21.052;2022-08-30T16:02:30;19.50;87.70
20996;DHT22;10656;52.200;21.052;2022-08-30T16:05:01;19.50;87.90
20996;DHT22;10656;52.200;21.052;2022-08-30T16:07:30;19.40;88.00
20996;DHT22;10656;52.200;21.052;2022-08-30T16:10:07;19.40;88.20
20996;DHT22;10656;52.200;21.052;2022-08-30T16:12:36;19.40;87.60